sensor_id;sensor_type;location;lat;lon;timestamp;P1;durP1;ratioP1;P2;durP2;ratioP2
6580;SDS011;3324;50.796;7.228;2022-10-26T00:02:11;2.30;;;0.80;;
6580;SDS011;3324;50.796;7.228;2022-10-26T00:04:36;2.30;;;0.70;;
6580;SDS011;3324;50.796;7.228;2022-10-26T00:07:02;0.40;;;0.40;;
6580;SDS011;3324;50.796;7.228;2022-10-26T00:09:27;0.40;;;0.40;;
6580;SDS011;3324;50.796;7.228;2022-10-26T00:11:53;2.10;;;0.80;;
6580;SDS011;3324;50.796;7.228;2022-10-26T00:14:19;0.40;;;0.40;;
6580;SDS011;3324;50.796;7.228;2022-10-26T00:16:44;0.40;;;0.40;;
6580;SDS011;3324;50.796;7.228;2022-10-26T00:19:10;0.40;;;0.40;;
6580;SDS011;3324;50.796;7.228;2022-10-26T00:21:35;2.10;;;0.80;;
6580;SDS011;3324;50.796;7.228;2022-10-26T00:24:01;0.40;;;0.40;;
6580;SDS011;3324;50.796;7.228;2022-10-26T00:26:27;0.40;;;0.40;;
6580;SDS011;3324;50.796;7.228;2022-10-26T00:28:53;0.40;;;0.40;;
6580;SDS011;3324;50.796;7.228;2022-10-26T00:31:20;0.40;;;0.40;;
6580;SDS011;3324;50.796;7.228;2022-10-26T00:33:46;0.40;;;0.40;;
6580;SDS011;3324;50.796;7.228;2022-10-26T00:36:15;0.40;;;0.40;;
6580;SDS011;3324;50.796;7.228;2022-10-26T00:38:42;0.50;;;0.50;;
6580;SDS011;3324;50.796;7.228;2022-10-26T00:41:23;2.20;;;0.85;;
6580;SDS011;3324;50.796;7.228;2022-10-26T00:43:50;0.50;;;0.50;;
6580;SDS011;3324;50.796;7.228;2022-10-26T00:46:19;0.45;;;0.45;;
6580;SDS011;3324;50.796;7.228;2022-10-26T00:48:51;0.40;;;0.40;;
6580;SDS011;3324;50.796;7.228;2022-10-26T00:51:21;2.30;;;0.85;;
6580;SDS011;3324;50.796;7.228;2022-10-26T00:54:04;0.50;;;0.50;;
6580;SDS011;3324;50.796;7.228;2022-10-26T00:56:37;0.50;;;0.50;;
6580;SDS011;3324;50.796;7.228;2022-10-26T00:59:08;0.40;;;0.40;;
6580;SDS011;3324;50.796;7.228;2022-10-26T01:01:35;2.20;;;0.80;;
6580;SDS011;3324;50.796;7.228;2022-10-26T01:04:04;2.20;;;0.80;;
6580;SDS011;3324;50.796;7.228;2022-10-26T01:06:30;0.40;;;0.40;;
6580;SDS011;3324;50.796;7.228;2022-10-26T01:08:58;0.40;;;0.40;;
6580;SDS011;3324;50.796;7.228;2022-10-26T01:11:23;2.10;;;0.70;;
6580;SDS011;3324;50.796;7.228;2022-10-26T01:13:49;2.10;;;0.70;;
6580;SDS011;3324;50.796;7.228;2022-10-26T01:19:22;2.10;;;0.70;;
6580;SDS011;3324;50.796;7.228;2022-10-26T01:27:49;0.40;;;0.30;;
6580;SDS011;3324;50.796;7.228;2022-10-26T01:30:35;0.50;;;0.50;;
6580;SDS011;3324;50.796;7.228;2022-10-26T01:43:47;2.10;;;0.70;;
6580;SDS011;3324;50.796;7.228;2022-10-26T01:46:18;2.20;;;0.70;;
6580;SDS011;3324;50.796;7.228;2022-10-26T01:48:46;1.00;;;0.70;;
6580;SDS011;3324;50.796;7.228;2022-10-26T01:51:15;0.40;;;0.40;;
6580;SDS011;3324;50.796;7.228;2022-10-26T01:53:43;0.40;;;0.40;;
6580;SDS011;3324;50.796;7.228;2022-10-26T01:56:12;0.40;;;0.40;;
6580;SDS011;3324;50.796;7.228;2022-10-26T02:03:49;0.40;;;0.40;;
6580;SDS011;3324;50.796;7.228;2022-10-26T02:06:21;2.10;;;0.80;;
6580;SDS011;3324;50.796;7.228;2022-10-26T02:09:26;0.40;;;0.40;;
6580;SDS011;3324;50.796;7.228;2022-10-26T02:11:58;2.20;;;0.80;;
6580;SDS011;3324;50.796;7.228;2022-10-26T02:14:34;0.40;;;0.40;;
6580;SDS011;3324;50.796;7.228;2022-10-26T02:17:14;0.40;;;0.40;;
6580;SDS011;3324;50.796;7.228;2022-10-26T02:20:17;0.40;;;0.40;;
6580;SDS011;3324;50.796;7.228;2022-10-26T02:22:49;0.40;;;0.40;;
6580;SDS011;3324;50.796;7.228;2022-10-26T02:25:18;2.20;;;0.80;;
6580;SDS011;3324;50.796;7.228;2022-10-26T02:27:54;0.50;;;0.50;;
6580;SDS011;3324;50.796;7.228;2022-10-26T02:30:23;0.40;;;0.40;;
6580;SDS011;3324;50.796;7.228;2022-10-26T02:32:51;0.40;;;0.40;;
6580;SDS011;3324;50.796;7.228;2022-10-26T02:35:20;0.40;;;0.40;;
6580;SDS011;3324;50.796;7.228;2022-10-26T02:37:49;0.40;;;0.40;;
6580;SDS011;3324;50.796;7.228;2022-10-26T02:40:18;0.40;;;0.40;;
6580;SDS011;3324;50.796;7.228;2022-10-26T02:42:48;2.30;;;0.80;;
6580;SDS011;3324;50.796;7.228;2022-10-26T02:45:16;0.50;;;0.50;;
6580;SDS011;3324;50.796;7.228;2022-10-26T02:47:50;0.40;;;0.40;;
6580;SDS011;3324;50.796;7.228;2022-10-26T02:50:18;0.40;;;0.40;;
6580;SDS011;3324;50.796;7.228;2022-10-26T02:55:24;1.90;;;0.70;;
6580;SDS011;3324;50.796;7.228;2022-10-26T02:57:54;1.80;;;0.60;;
6580;SDS011;3324;50.796;7.228;2022-10-26T03:00:24;0.40;;;0.40;;
6580;SDS011;3324;50.796;7.228;2022-10-26T03:02:51;0.50;;;0.50;;
6580;SDS011;3324;50.796;7.228;2022-10-26T03:05:19;2.00;;;0.90;;
6580;SDS011;3324;50.796;7.228;2022-10-26T03:07:47;2.00;;;0.80;;
6580;SDS011;3324;50.796;7.228;2022-10-26T03:10:13;0.40;;;0.40;;
6580;SDS011;3324;50.796;7.228;2022-10-26T03:12:39;0.40;;;0.40;;
6580;SDS011;3324;50.796;7.228;2022-10-26T03:15:04;0.40;;;0.40;;
6580;SDS011;3324;50.796;7.228;2022-10-26T03:17:30;1.90;;;0.80;;
6580;SDS011;3324;50.796;7.228;2022-10-26T03:19:56;1.90;;;0.70;;
6580;SDS011;3324;50.796;7.228;2022-10-26T03:22:21;0.50;;;0.50;;
6580;SDS011;3324;50.796;7.228;2022-10-26T03:24:47;0.40;;;0.40;;
6580;SDS011;3324;50.796;7.228;2022-10-26T03:27:13;1.90;;;0.60;;
6580;SDS011;3324;50.796;7.228;2022-10-26T03:29:39;0.20;;;0.20;;
6580;SDS011;3324;50.796;7.228;2022-10-26T03:32:04;0.20;;;0.20;;
6580;SDS011;3324;50.796;7.228;2022-10-26T03:34:31;0.30;;;0.30;;
6580;SDS011;3324;50.796;7.228;2022-10-26T03:36:56;0.20;;;0.20;;
6580;SDS011;3324;50.796;7.228;2022-10-26T03:39:22;0.30;;;0.30;;
6580;SDS011;3324;50.796;7.228;2022-10-26T03:41:48;1.80;;;0.60;;
6580;SDS011;3324;50.796;7.228;2022-10-26T03:44:13;0.20;;;0.20;;
6580;SDS011;3324;50.796;7.228;2022-10-26T03:46:39;0.20;;;0.20;;
6580;SDS011;3324;50.796;7.228;2022-10-26T03:49:04;2.70;;;0.90;;
6580;SDS011;3324;50.796;7.228;2022-10-26T03:51:30;1.90;;;0.60;;
6580;SDS011;3324;50.796;7.228;2022-10-26T03:53:56;0.20;;;0.20;;
6580;SDS011;3324;50.796;7.228;2022-10-26T03:56:22;0.20;;;0.20;;
6580;SDS011;3324;50.796;7.228;2022-10-26T03:58:47;0.30;;;0.30;;
6580;SDS011;3324;50.796;7.228;2022-10-26T04:01:13;1.80;;;0.60;;
6580;SDS011;3324;50.796;7.228;2022-10-26T04:03:39;0.10;;;0.10;;
6580;SDS011;3324;50.796;7.228;2022-10-26T04:06:04;0.20;;;0.20;;
6580;SDS011;3324;50.796;7.228;2022-10-26T04:08:30;0.30;;;0.30;;
6580;SDS011;3324;50.796;7.228;2022-10-26T04:10:56;2.00;;;0.60;;
6580;SDS011;3324;50.796;7.228;2022-10-26T04:13:21;0.20;;;0.20;;
6580;SDS011;3324;50.796;7.228;2022-10-26T04:15:47;0.20;;;0.20;;
6580;SDS011;3324;50.796;7.228;2022-10-26T04:18:13;0.20;;;0.20;;
6580;SDS011;3324;50.796;7.228;2022-10-26T04:20:39;2.00;;;0.60;;
6580;SDS011;3324;50.796;7.228;2022-10-26T04:23:14;2.00;;;0.90;;
6580;SDS011;3324;50.796;7.228;2022-10-26T04:25:42;0.20;;;0.10;;
6580;SDS011;3324;50.796;7.228;2022-10-26T04:28:09;0.20;;;0.20;;
6580;SDS011;3324;50.796;7.228;2022-10-26T04:30:35;0.20;;;0.20;;
6580;SDS011;3324;50.796;7.228;2022-10-26T04:33:02;0.30;;;0.30;;
6580;SDS011;3324;50.796;7.228;2022-10-26T04:35:29;2.20;;;1.60;;
6580;SDS011;3324;50.796;7.228;2022-10-26T04:37:56;2.20;;;1.70;;
6580;SDS011;3324;50.796;7.228;2022-10-26T04:40:22;0.30;;;0.30;;
6580;SDS011;3324;50.796;7.228;2022-10-26T04:42:48;2.20;;;0.70;;
6580;SDS011;3324;50.796;7.228;2022-10-26T04:45:14;2.10;;;1.00;;
6580;SDS011;3324;50.796;7.228;2022-10-26T04:47:40;0.30;;;0.30;;
6580;SDS011;3324;50.796;7.228;2022-10-26T04:50:06;0.30;;;0.30;;
6580;SDS011;3324;50.796;7.228;2022-10-26T04:52:33;0.30;;;0.30;;
6580;SDS011;3324;50.796;7.228;2022-10-26T04:54:59;0.30;;;0.30;;
6580;SDS011;3324;50.796;7.228;2022-10-26T04:57:25;0.30;;;0.30;;
6580;SDS011;3324;50.796;7.228;2022-10-26T04:59:50;0.30;;;0.30;;
6580;SDS011;3324;50.796;7.228;2022-10-26T05:02:16;2.00;;;0.70;;
6580;SDS011;3324;50.796;7.228;2022-10-26T05:04:41;0.30;;;0.30;;
6580;SDS011;3324;50.796;7.228;2022-10-26T05:07:07;0.30;;;0.30;;
6580;SDS011;3324;50.796;7.228;2022-10-26T05:09:33;0.30;;;0.30;;
6580;SDS011;3324;50.796;7.228;2022-10-26T05:11:58;2.00;;;0.70;;
6580;SDS011;3324;50.796;7.228;2022-10-26T05:14:24;0.30;;;0.30;;
6580;SDS011;3324;50.796;7.228;2022-10-26T05:16:49;0.30;;;0.30;;
6580;SDS011;3324;50.796;7.228;2022-10-26T05:19:15;2.10;;;1.10;;
6580;SDS011;3324;50.796;7.228;2022-10-26T05:21:41;2.00;;;0.70;;
6580;SDS011;3324;50.796;7.228;2022-10-26T05:24:07;0.30;;;0.30;;
6580;SDS011;3324;50.796;7.228;2022-10-26T05:26:32;0.30;;;0.30;;
6580;SDS011;3324;50.796;7.228;2022-10-26T05:28:58;0.30;;;0.30;;
6580;SDS011;3324;50.796;7.228;2022-10-26T05:31:24;2.00;;;0.80;;
6580;SDS011;3324;50.796;7.228;2022-10-26T05:33:50;0.30;;;0.30;;
6580;SDS011;3324;50.796;7.228;2022-10-26T05:36:16;0.30;;;0.30;;
6580;SDS011;3324;50.796;7.228;2022-10-26T05:38:42;0.30;;;0.30;;
6580;SDS011;3324;50.796;7.228;2022-10-26T05:41:08;0.30;;;0.30;;
6580;SDS011;3324;50.796;7.228;2022-10-26T05:43:34;0.30;;;0.30;;
6580;SDS011;3324;50.796;7.228;2022-10-26T05:45:59;2.00;;;0.70;;
6580;SDS011;3324;50.796;7.228;2022-10-26T05:48:25;0.30;;;0.30;;
6580;SDS011;3324;50.796;7.228;2022-10-26T05:50:50;0.30;;;0.30;;
6580;SDS011;3324;50.796;7.228;2022-10-26T05:53:16;0.30;;;0.30;;
6580;SDS011;3324;50.796;7.228;2022-10-26T05:55:42;2.00;;;0.70;;
6580;SDS011;3324;50.796;7.228;2022-10-26T05:58:12;2.10;;;1.30;;
6580;SDS011;3324;50.796;7.228;2022-10-26T06:00:43;0.30;;;0.30;;
6580;SDS011;3324;50.796;7.228;2022-10-26T06:03:43;2.00;;;0.70;;
6580;SDS011;3324;50.796;7.228;2022-10-26T06:06:26;0.30;;;0.30;;
6580;SDS011;3324;50.796;7.228;2022-10-26T06:08:58;0.30;;;0.30;;
6580;SDS011;3324;50.796;7.228;2022-10-26T06:11:24;0.30;;;0.30;;
6580;SDS011;3324;50.796;7.228;2022-10-26T06:13:50;2.10;;;0.90;;
6580;SDS011;3324;50.796;7.228;2022-10-26T06:22:12;0.30;;;0.30;;
6580;SDS011;3324;50.796;7.228;2022-10-26T06:30:06;0.30;;;0.30;;
6580;SDS011;3324;50.796;7.228;2022-10-26T06:32:39;2.00;;;0.70;;
6580;SDS011;3324;50.796;7.228;2022-10-26T06:37:57;0.30;;;0.30;;
6580;SDS011;3324;50.796;7.228;2022-10-26T06:40:27;0.30;;;0.30;;
6580;SDS011;3324;50.796;7.228;2022-10-26T06:42:56;0.30;;;0.30;;
6580;SDS011;3324;50.796;7.228;2022-10-26T06:45:23;0.30;;;0.30;;
6580;SDS011;3324;50.796;7.228;2022-10-26T06:48:02;0.30;;;0.30;;
6580;SDS011;3324;50.796;7.228;2022-10-26T06:50:37;0.30;;;0.30;;
6580;SDS011;3324;50.796;7.228;2022-10-26T06:55:50;0.30;;;0.30;;
6580;SDS011;3324;50.796;7.228;2022-10-26T06:58:17;0.30;;;0.30;;
6580;SDS011;3324;50.796;7.228;2022-10-26T07:00:45;2.20;;;1.50;;
6580;SDS011;3324;50.796;7.228;2022-10-26T07:03:13;2.00;;;0.70;;
6580;SDS011;3324;50.796;7.228;2022-10-26T07:05:38;0.30;;;0.30;;
6580;SDS011;3324;50.796;7.228;2022-10-26T07:08:04;0.30;;;0.30;;
6580;SDS011;3324;50.796;7.228;2022-10-26T07:10:30;0.30;;;0.30;;
6580;SDS011;3324;50.796;7.228;2022-10-26T07:12:56;2.00;;;0.60;;
6580;SDS011;3324;50.796;7.228;2022-10-26T07:15:22;2.00;;;0.70;;
6580;SDS011;3324;50.796;7.228;2022-10-26T07:17:47;0.20;;;0.20;;
6580;SDS011;3324;50.796;7.228;2022-10-26T07:20:14;0.20;;;0.20;;
6580;SDS011;3324;50.796;7.228;2022-10-26T07:22:41;2.00;;;0.70;;
6580;SDS011;3324;50.796;7.228;2022-10-26T07:25:07;0.30;;;0.30;;
6580;SDS011;3324;50.796;7.228;2022-10-26T07:27:33;0.30;;;0.30;;
6580;SDS011;3324;50.796;7.228;2022-10-26T07:29:59;0.30;;;0.30;;
6580;SDS011;3324;50.796;7.228;2022-10-26T07:32:26;0.30;;;0.30;;
6580;SDS011;3324;50.796;7.228;2022-10-26T07:34:51;0.30;;;0.30;;
6580;SDS011;3324;50.796;7.228;2022-10-26T07:37:17;2.30;;;1.50;;
6580;SDS011;3324;50.796;7.228;2022-10-26T07:39:42;0.30;;;0.30;;
6580;SDS011;3324;50.796;7.228;2022-10-26T07:42:08;0.30;;;0.30;;
6580;SDS011;3324;50.796;7.228;2022-10-26T07:44:33;0.30;;;0.30;;
6580;SDS011;3324;50.796;7.228;2022-10-26T07:46:59;2.10;;;1.30;;
6580;SDS011;3324;50.796;7.228;2022-10-26T07:49:25;0.30;;;0.30;;
6580;SDS011;3324;50.796;7.228;2022-10-26T07:51:50;0.30;;;0.30;;
6580;SDS011;3324;50.796;7.228;2022-10-26T07:54:16;0.30;;;0.30;;
6580;SDS011;3324;50.796;7.228;2022-10-26T07:56:41;2.50;;;2.30;;
6580;SDS011;3324;50.796;7.228;2022-10-26T07:59:09;0.40;;;0.40;;
6580;SDS011;3324;50.796;7.228;2022-10-26T08:01:35;0.40;;;0.40;;
6580;SDS011;3324;50.796;7.228;2022-10-26T08:04:01;2.20;;;1.80;;
6580;SDS011;3324;50.796;7.228;2022-10-26T08:06:27;0.30;;;0.30;;
6580;SDS011;3324;50.796;7.228;2022-10-26T08:08:52;0.30;;;0.30;;
6580;SDS011;3324;50.796;7.228;2022-10-26T08:11:18;0.40;;;0.40;;
6580;SDS011;3324;50.796;7.228;2022-10-26T08:13:43;2.10;;;1.20;;
6580;SDS011;3324;50.796;7.228;2022-10-26T08:16:09;0.40;;;0.40;;
6580;SDS011;3324;50.796;7.228;2022-10-26T08:18:35;0.40;;;0.40;;
6580;SDS011;3324;50.796;7.228;2022-10-26T08:21:02;0.90;;;0.90;;
6580;SDS011;3324;50.796;7.228;2022-10-26T08:23:30;5.40;;;5.30;;
6580;SDS011;3324;50.796;7.228;2022-10-26T08:26:00;5.95;;;5.85;;
6580;SDS011;3324;50.796;7.228;2022-10-26T08:28:27;7.80;;;7.70;;
6580;SDS011;3324;50.796;7.228;2022-10-26T08:30:54;8.70;;;8.50;;
6580;SDS011;3324;50.796;7.228;2022-10-26T08:33:20;8.60;;;8.40;;
6580;SDS011;3324;50.796;7.228;2022-10-26T08:35:46;8.75;;;8.55;;
6580;SDS011;3324;50.796;7.228;2022-10-26T08:38:11;9.00;;;8.80;;
6580;SDS011;3324;50.796;7.228;2022-10-26T08:40:38;10.10;;;9.60;;
6580;SDS011;3324;50.796;7.228;2022-10-26T08:45:58;7.90;;;7.80;;
6580;SDS011;3324;50.796;7.228;2022-10-26T08:48:31;8.30;;;8.10;;
6580;SDS011;3324;50.796;7.228;2022-10-26T08:51:13;10.00;;;9.50;;
6580;SDS011;3324;50.796;7.228;2022-10-26T09:01:50;9.60;;;9.20;;
6580;SDS011;3324;50.796;7.228;2022-10-26T09:04:16;9.00;;;8.80;;
6580;SDS011;3324;50.796;7.228;2022-10-26T09:12:12;8.70;;;8.50;;
6580;SDS011;3324;50.796;7.228;2022-10-26T09:17:44;10.30;;;9.80;;
6580;SDS011;3324;50.796;7.228;2022-10-26T09:26:11;11.00;;;10.60;;
6580;SDS011;3324;50.796;7.228;2022-10-26T09:28:39;10.70;;;10.15;;
6580;SDS011;3324;50.796;7.228;2022-10-26T09:31:10;10.40;;;9.90;;
6580;SDS011;3324;50.796;7.228;2022-10-26T09:33:40;9.30;;;9.10;;
6580;SDS011;3324;50.796;7.228;2022-10-26T09:36:07;9.90;;;9.60;;
6580;SDS011;3324;50.796;7.228;2022-10-26T09:38:57;9.70;;;9.40;;
6580;SDS011;3324;50.796;7.228;2022-10-26T09:41:45;9.63;;;9.32;;
6580;SDS011;3324;50.796;7.228;2022-10-26T09:44:26;9.80;;;9.50;;
6580;SDS011;3324;50.796;7.228;2022-10-26T09:49:44;10.50;;;10.00;;
6580;SDS011;3324;50.796;7.228;2022-10-26T09:52:22;9.70;;;9.40;;
6580;SDS011;3324;50.796;7.228;2022-10-26T09:54:48;10.00;;;9.70;;
6580;SDS011;3324;50.796;7.228;2022-10-26T09:57:14;11.10;;;10.50;;
6580;SDS011;3324;50.796;7.228;2022-10-26T09:59:41;9.95;;;9.65;;
6580;SDS011;3324;50.796;7.228;2022-10-26T10:13:28;10.50;;;10.10;;
6580;SDS011;3324;50.796;7.228;2022-10-26T10:18:43;10.70;;;10.30;;
6580;SDS011;3324;50.796;7.228;2022-10-26T10:21:17;10.00;;;9.70;;
6580;SDS011;3324;50.796;7.228;2022-10-26T10:23:47;10.20;;;9.80;;
6580;SDS011;3324;50.796;7.228;2022-10-26T10:26:16;9.50;;;9.20;;
6580;SDS011;3324;50.796;7.228;2022-10-26T10:28:41;10.00;;;9.70;;
6580;SDS011;3324;50.796;7.228;2022-10-26T10:31:19;10.10;;;9.80;;
6580;SDS011;3324;50.796;7.228;2022-10-26T10:33:46;11.60;;;10.90;;
6580;SDS011;3324;50.796;7.228;2022-10-26T10:36:17;10.80;;;10.40;;
6580;SDS011;3324;50.796;7.228;2022-10-26T10:38:45;11.70;;;11.00;;
6580;SDS011;3324;50.796;7.228;2022-10-26T10:41:20;11.20;;;10.70;;
6580;SDS011;3324;50.796;7.228;2022-10-26T10:46:44;11.00;;;10.50;;
6580;SDS011;3324;50.796;7.228;2022-10-26T10:49:21;10.90;;;10.50;;
6580;SDS011;3324;50.796;7.228;2022-10-26T10:51:50;11.13;;;10.63;;
6580;SDS011;3324;50.796;7.228;2022-10-26T10:54:18;11.10;;;10.60;;
6580;SDS011;3324;50.796;7.228;2022-10-26T10:56:52;11.20;;;10.70;;
6580;SDS011;3324;50.796;7.228;2022-10-26T11:07:21;12.30;;;11.50;;
6580;SDS011;3324;50.796;7.228;2022-10-26T11:09:49;10.93;;;10.43;;
6580;SDS011;3324;50.796;7.228;2022-10-26T11:12:23;11.10;;;10.60;;
6580;SDS011;3324;50.796;7.228;2022-10-26T11:18:05;11.00;;;10.50;;
6580;SDS011;3324;50.796;7.228;2022-10-26T11:20:38;11.00;;;10.40;;
6580;SDS011;3324;50.796;7.228;2022-10-26T11:23:32;11.63;;;10.93;;
6580;SDS011;3324;50.796;7.228;2022-10-26T11:31:12;10.70;;;10.30;;
6580;SDS011;3324;50.796;7.228;2022-10-26T11:33:50;11.00;;;10.50;;
6580;SDS011;3324;50.796;7.228;2022-10-26T11:36:26;10.55;;;10.15;;
6580;SDS011;3324;50.796;7.228;2022-10-26T11:41:52;11.60;;;10.90;;
6580;SDS011;3324;50.796;7.228;2022-10-26T11:44:50;11.70;;;11.10;;
6580;SDS011;3324;50.796;7.228;2022-10-26T11:47:42;11.55;;;10.95;;
6580;SDS011;3324;50.796;7.228;2022-10-26T11:53:09;10.97;;;10.47;;
6580;SDS011;3324;50.796;7.228;2022-10-26T11:55:50;11.70;;;11.10;;
6580;SDS011;3324;50.796;7.228;2022-10-26T11:58:18;12.10;;;11.30;;
6580;SDS011;3324;50.796;7.228;2022-10-26T12:00:59;11.35;;;10.75;;
6580;SDS011;3324;50.796;7.228;2022-10-26T12:03:29;12.10;;;11.40;;
6580;SDS011;3324;50.796;7.228;2022-10-26T12:05:57;11.90;;;11.30;;
6580;SDS011;3324;50.796;7.228;2022-10-26T12:08:30;11.65;;;11.05;;
6580;SDS011;3324;50.796;7.228;2022-10-26T12:19:05;11.70;;;11.10;;
6580;SDS011;3324;50.796;7.228;2022-10-26T12:21:41;12.60;;;11.70;;
6580;SDS011;3324;50.796;7.228;2022-10-26T12:29:28;13.00;;;12.10;;
6580;SDS011;3324;50.796;7.228;2022-10-26T12:37:23;12.20;;;11.50;;
6580;SDS011;3324;50.796;7.228;2022-10-26T12:45:40;12.90;;;12.00;;
6580;SDS011;3324;50.796;7.228;2022-10-26T12:56:15;12.50;;;11.80;;
6580;SDS011;3324;50.796;7.228;2022-10-26T12:58:58;13.30;;;12.30;;
6580;SDS011;3324;50.796;7.228;2022-10-26T13:01:47;12.80;;;12.10;;
6580;SDS011;3324;50.796;7.228;2022-10-26T13:04:48;12.93;;;12.20;;
6580;SDS011;3324;50.796;7.228;2022-10-26T13:07:22;12.80;;;12.10;;
6580;SDS011;3324;50.796;7.228;2022-10-26T13:12:26;12.80;;;12.10;;
6580;SDS011;3324;50.796;7.228;2022-10-26T13:15:01;13.70;;;12.80;;
6580;SDS011;3324;50.796;7.228;2022-10-26T13:19:56;14.20;;;13.30;;
6580;SDS011;3324;50.796;7.228;2022-10-26T13:22:25;14.57;;;13.48;;
6580;SDS011;3324;50.796;7.228;2022-10-26T13:25:01;14.60;;;13.50;;
6580;SDS011;3324;50.796;7.228;2022-10-26T13:32:41;13.60;;;12.60;;
6580;SDS011;3324;50.796;7.228;2022-10-26T13:35:14;14.00;;;13.00;;
6580;SDS011;3324;50.796;7.228;2022-10-26T13:37:41;13.90;;;12.90;;
6580;SDS011;3324;50.796;7.228;2022-10-26T13:40:12;12.30;;;11.60;;
6580;SDS011;3324;50.796;7.228;2022-10-26T13:42:44;12.50;;;11.80;;
6580;SDS011;3324;50.796;7.228;2022-10-26T13:45:14;12.82;;;11.93;;
6580;SDS011;3324;50.796;7.228;2022-10-26T13:50:31;11.20;;;10.70;;
6580;SDS011;3324;50.796;7.228;2022-10-26T13:53:06;12.33;;;11.53;;
6580;SDS011;3324;50.796;7.228;2022-10-26T13:55:44;12.63;;;11.93;;
6580;SDS011;3324;50.796;7.228;2022-10-26T13:58:19;11.98;;;11.30;;
6580;SDS011;3324;50.796;7.228;2022-10-26T14:01:02;14.10;;;13.10;;
6580;SDS011;3324;50.796;7.228;2022-10-26T14:03:34;13.40;;;12.60;;
6580;SDS011;3324;50.796;7.228;2022-10-26T14:06:04;13.90;;;12.90;;
6580;SDS011;3324;50.796;7.228;2022-10-26T14:08:45;12.80;;;12.10;;
6580;SDS011;3324;50.796;7.228;2022-10-26T14:11:15;14.10;;;13.10;;
6580;SDS011;3324;50.796;7.228;2022-10-26T14:13:44;13.80;;;12.80;;
6580;SDS011;3324;50.796;7.228;2022-10-26T14:16:12;13.00;;;12.20;;
6580;SDS011;3324;50.796;7.228;2022-10-26T14:18:40;13.75;;;12.75;;
6580;SDS011;3324;50.796;7.228;2022-10-26T14:21:06;13.50;;;12.50;;
6580;SDS011;3324;50.796;7.228;2022-10-26T14:23:47;13.20;;;12.40;;
6580;SDS011;3324;50.796;7.228;2022-10-26T14:28:50;13.10;;;12.30;;
6580;SDS011;3324;50.796;7.228;2022-10-26T14:33:48;13.10;;;12.30;;
6580;SDS011;3324;50.796;7.228;2022-10-26T14:36:15;13.60;;;12.80;;
6580;SDS011;3324;50.796;7.228;2022-10-26T14:38:44;14.30;;;13.20;;
6580;SDS011;3324;50.796;7.228;2022-10-26T14:41:12;13.10;;;12.30;;
6580;SDS011;3324;50.796;7.228;2022-10-26T14:43:40;13.20;;;12.40;;
6580;SDS011;3324;50.796;7.228;2022-10-26T14:46:11;13.30;;;12.50;;
6580;SDS011;3324;50.796;7.228;2022-10-26T14:48:40;13.00;;;12.20;;
6580;SDS011;3324;50.796;7.228;2022-10-26T14:51:25;13.00;;;12.20;;
6580;SDS011;3324;50.796;7.228;2022-10-26T14:53:58;12.95;;;12.15;;
6580;SDS011;3324;50.796;7.228;2022-10-26T14:59:08;13.10;;;12.30;;
6580;SDS011;3324;50.796;7.228;2022-10-26T15:04:41;12.70;;;12.00;;
6580;SDS011;3324;50.796;7.228;2022-10-26T15:17:41;11.70;;;11.10;;
6580;SDS011;3324;50.796;7.228;2022-10-26T15:25:22;12.30;;;11.60;;
6580;SDS011;3324;50.796;7.228;2022-10-26T15:30:21;11.70;;;11.10;;
6580;SDS011;3324;50.796;7.228;2022-10-26T15:32:49;12.55;;;11.65;;
6580;SDS011;3324;50.796;7.228;2022-10-26T15:35:23;12.63;;;11.80;;
6580;SDS011;3324;50.796;7.228;2022-10-26T15:37:51;12.50;;;11.70;;
6580;SDS011;3324;50.796;7.228;2022-10-26T15:40:19;10.90;;;10.40;;
6580;SDS011;3324;50.796;7.228;2022-10-26T15:42:46;11.50;;;10.90;;
6580;SDS011;3324;50.796;7.228;2022-10-26T15:45:21;11.70;;;11.00;;
6580;SDS011;3324;50.796;7.228;2022-10-26T15:47:49;11.15;;;10.65;;
6580;SDS011;3324;50.796;7.228;2022-10-26T15:50:17;12.20;;;11.40;;
6580;SDS011;3324;50.796;7.228;2022-10-26T15:52:48;11.10;;;10.60;;
6580;SDS011;3324;50.796;7.228;2022-10-26T15:55:18;11.40;;;10.70;;
6580;SDS011;3324;50.796;7.228;2022-10-26T15:57:44;11.40;;;10.70;;
6580;SDS011;3324;50.796;7.228;2022-10-26T16:00:13;10.25;;;9.85;;
6580;SDS011;3324;50.796;7.228;2022-10-26T16:02:40;11.40;;;10.70;;
6580;SDS011;3324;50.796;7.228;2022-10-26T16:05:08;10.80;;;10.30;;
6580;SDS011;3324;50.796;7.228;2022-10-26T16:07:36;10.60;;;10.20;;
6580;SDS011;3324;50.796;7.228;2022-10-26T16:10:03;11.57;;;10.88;;
6580;SDS011;3324;50.796;7.228;2022-10-26T16:12:31;11.10;;;10.60;;
6580;SDS011;3324;50.796;7.228;2022-10-26T16:14:56;11.00;;;10.50;;
6580;SDS011;3324;50.796;7.228;2022-10-26T16:17:24;11.20;;;10.70;;
6580;SDS011;3324;50.796;7.228;2022-10-26T16:19:50;11.25;;;10.75;;
6580;SDS011;3324;50.796;7.228;2022-10-26T16:22:16;12.25;;;11.45;;
6580;SDS011;3324;50.796;7.228;2022-10-26T16:24:41;11.50;;;10.90;;
6580;SDS011;3324;50.796;7.228;2022-10-26T16:27:07;11.30;;;10.70;;
6580;SDS011;3324;50.796;7.228;2022-10-26T16:29:32;12.50;;;11.60;;
6580;SDS011;3324;50.796;7.228;2022-10-26T16:31:58;11.30;;;10.70;;
6580;SDS011;3324;50.796;7.228;2022-10-26T16:34:23;11.50;;;10.90;;
6580;SDS011;3324;50.796;7.228;2022-10-26T16:36:49;12.30;;;11.50;;
6580;SDS011;3324;50.796;7.228;2022-10-26T16:39:15;11.60;;;11.00;;
6580;SDS011;3324;50.796;7.228;2022-10-26T16:41:40;11.70;;;11.10;;
6580;SDS011;3324;50.796;7.228;2022-10-26T16:44:06;13.30;;;12.00;;
6580;SDS011;3324;50.796;7.228;2022-10-26T16:46:31;11.60;;;11.00;;
6580;SDS011;3324;50.796;7.228;2022-10-26T16:48:57;11.00;;;10.50;;
6580;SDS011;3324;50.796;7.228;2022-10-26T16:51:24;11.50;;;10.90;;
6580;SDS011;3324;50.796;7.228;2022-10-26T16:53:52;11.50;;;10.90;;
6580;SDS011;3324;50.796;7.228;2022-10-26T16:56:21;11.90;;;11.20;;
6580;SDS011;3324;50.796;7.228;2022-10-26T16:58:52;12.10;;;11.30;;
6580;SDS011;3324;50.796;7.228;2022-10-26T17:01:18;12.20;;;11.40;;
6580;SDS011;3324;50.796;7.228;2022-10-26T17:03:48;12.15;;;11.35;;
6580;SDS011;3324;50.796;7.228;2022-10-26T17:06:15;11.30;;;10.80;;
6580;SDS011;3324;50.796;7.228;2022-10-26T17:08:41;11.40;;;10.80;;
6580;SDS011;3324;50.796;7.228;2022-10-26T17:11:28;12.20;;;11.40;;
6580;SDS011;3324;50.796;7.228;2022-10-26T17:13:54;11.20;;;10.70;;
6580;SDS011;3324;50.796;7.228;2022-10-26T17:16:21;11.50;;;10.90;;
6580;SDS011;3324;50.796;7.228;2022-10-26T17:18:48;12.10;;;11.30;;
6580;SDS011;3324;50.796;7.228;2022-10-26T17:21:15;12.30;;;11.50;;
6580;SDS011;3324;50.796;7.228;2022-10-26T17:23:42;11.35;;;10.80;;
6580;SDS011;3324;50.796;7.228;2022-10-26T17:26:09;11.50;;;10.90;;
6580;SDS011;3324;50.796;7.228;2022-10-26T17:28:36;10.90;;;10.40;;
6580;SDS011;3324;50.796;7.228;2022-10-26T17:31:09;11.10;;;10.60;;
6580;SDS011;3324;50.796;7.228;2022-10-26T17:33:39;11.17;;;10.67;;
6580;SDS011;3324;50.796;7.228;2022-10-26T17:36:10;11.80;;;11.00;;
6580;SDS011;3324;50.796;7.228;2022-10-26T17:38:38;11.10;;;10.60;;
6580;SDS011;3324;50.796;7.228;2022-10-26T17:41:07;11.10;;;10.60;;
6580;SDS011;3324;50.796;7.228;2022-10-26T17:43:36;11.00;;;10.50;;
6580;SDS011;3324;50.796;7.228;2022-10-26T17:46:03;11.10;;;10.60;;
6580;SDS011;3324;50.796;7.228;2022-10-26T17:48:31;11.85;;;11.15;;
6580;SDS011;3324;50.796;7.228;2022-10-26T17:50:57;11.70;;;11.00;;
6580;SDS011;3324;50.796;7.228;2022-10-26T17:53:24;11.90;;;11.10;;
6580;SDS011;3324;50.796;7.228;2022-10-26T17:55:50;11.90;;;11.10;;
6580;SDS011;3324;50.796;7.228;2022-10-26T17:58:31;12.10;;;11.30;;
6580;SDS011;3324;50.796;7.228;2022-10-26T18:01:01;11.80;;;11.10;;
6580;SDS011;3324;50.796;7.228;2022-10-26T18:03:29;11.05;;;10.55;;
6580;SDS011;3324;50.796;7.228;2022-10-26T18:05:55;11.00;;;10.50;;
6580;SDS011;3324;50.796;7.228;2022-10-26T18:08:21;12.60;;;11.50;;
6580;SDS011;3324;50.796;7.228;2022-10-26T18:10:49;11.40;;;10.70;;
6580;SDS011;3324;50.796;7.228;2022-10-26T18:13:16;11.38;;;10.68;;
6580;SDS011;3324;50.796;7.228;2022-10-26T18:15:43;10.87;;;10.37;;
6580;SDS011;3324;50.796;7.228;2022-10-26T18:18:09;10.90;;;10.40;;
6580;SDS011;3324;50.796;7.228;2022-10-26T18:20:35;11.00;;;10.50;;
6580;SDS011;3324;50.796;7.228;2022-10-26T18:23:01;10.60;;;10.20;;